createdAt,value
2023-05-06T00:00:41.131Z,100754.22
2023-05-06T00:03:26.968Z,100749.03
2023-05-06T00:06:12.350Z,100748.13
2023-05-06T00:08:57.596Z,100748.16
2023-05-06T00:11:42.929Z,100749.88
2023-05-06T00:14:28.241Z,100738.59
2023-05-06T00:17:13.474Z,100738.59
2023-05-06T00:19:58.804Z,100731.59
2023-05-06T00:22:44.263Z,100733.34
2023-05-06T00:25:29.649Z,100736.81
2023-05-06T00:28:14.911Z,100739.41
2023-05-06T00:31:00.742Z,100736.81
2023-05-06T00:33:46.205Z,100748.06
2023-05-06T00:36:31.717Z,100754.13
2023-05-06T00:39:17.044Z,100761.94
2023-05-06T00:42:02.643Z,100759.28
2023-05-06T00:44:48.174Z,100762.78
2023-05-06T00:47:33.820Z,100770.59
2023-05-06T00:50:19.745Z,100758.44
2023-05-06T00:53:05.930Z,100766.25
2023-05-06T00:55:51.587Z,100760.19
2023-05-06T00:58:37.748Z,100763.66
2023-05-06T01:01:24.043Z,100762.78
2023-05-06T01:04:10.296Z,100760.19
2023-05-06T01:07:01.526Z,100758.44
2023-05-06T01:10:08.436Z,100748.00
2023-05-06T01:13:40.972Z,100749.75
2023-05-06T01:16:29.632Z,100756.72
2023-05-06T01:19:34.954Z,100758.47
2023-05-06T01:22:21.262Z,100755.03
2023-05-06T01:25:07.291Z,100753.28
2023-05-06T01:27:52.770Z,100748.97
2023-05-06T01:31:01.058Z,100747.25
2023-05-06T01:34:08.331Z,100742.91
2023-05-06T01:37:04.133Z,100735.97
2023-05-06T01:39:50.435Z,100729.03
2023-05-06T01:42:37.452Z,100728.16
2023-05-06T01:45:27.722Z,100728.16
2023-05-06T01:48:13.578Z,100722.06
2023-05-06T01:50:59.333Z,100709.06
2023-05-06T01:53:44.894Z,100712.53
2023-05-06T01:56:30.427Z,100706.44
2023-05-06T01:59:15.819Z,100715.09
2023-05-06T02:02:01.215Z,100714.22
2023-05-06T02:04:46.580Z,100717.66
2023-05-06T02:07:31.860Z,100709.81
2023-05-06T02:10:17.938Z,100721.97
2023-05-06T02:13:08.437Z,100716.69
2023-05-06T02:15:54.956Z,100714.09
2023-05-06T02:18:41.597Z,100706.28
2023-05-06T02:21:28.395Z,100720.13
2023-05-06T02:24:13.555Z,100721.81
2023-05-06T02:26:59.098Z,100719.19
2023-05-06T02:29:44.886Z,100721.78
2023-05-06T02:32:30.700Z,100726.97
2023-05-06T02:35:16.153Z,100733.88
2023-05-06T02:38:01.853Z,100724.31
2023-05-06T02:40:47.328Z,100737.31
2023-05-06T02:43:32.778Z,100735.63
2023-05-06T02:46:18.199Z,100732.13
2023-05-06T02:49:04.095Z,100728.69
2023-05-06T02:51:49.358Z,100727.88
2023-05-06T02:54:34.952Z,100734.81
2023-05-06T02:57:20.504Z,100733.97
2023-05-06T03:00:06.871Z,100730.53
2023-05-06T03:02:52.415Z,100729.63
2023-05-06T03:05:37.655Z,100729.59
2023-05-06T03:08:23.118Z,100736.50
2023-05-06T03:11:09.427Z,100730.38
2023-05-06T03:13:54.822Z,100726.03
2023-05-06T03:16:40.285Z,100732.03
2023-05-06T03:19:26.026Z,100732.88
2023-05-06T03:22:11.998Z,100725.94
2023-05-06T03:25:01.452Z,100734.63
2023-05-06T03:27:48.841Z,100730.28
2023-05-06T03:30:38.393Z,100727.66
2023-05-06T03:33:26.164Z,100728.53
2023-05-06T03:36:14.138Z,100721.56
2023-05-06T03:39:01.999Z,100726.75
2023-05-06T03:41:50.439Z,100729.38
2023-05-06T03:44:36.749Z,100721.56
2023-05-06T03:47:22.475Z,100725.00
2023-05-06T03:50:08.695Z,100717.16
2023-05-06T03:52:55.794Z,100723.28
2023-05-06T03:55:44.688Z,100717.25
2023-05-06T03:58:31.634Z,100719.88
2023-05-06T04:01:18.352Z,100719.03
2023-05-06T04:04:03.913Z,100719.03
2023-05-06T04:06:49.763Z,100718.19
2023-05-06T04:09:35.094Z,100726.88
2023-05-06T04:12:25.238Z,100725.94
2023-05-06T04:15:12.062Z,100721.56
2023-05-06T04:17:58.713Z,100728.47
2023-05-06T04:20:48.302Z,100726.69
2023-05-06T04:23:33.859Z,100720.59
2023-05-06T04:26:19.578Z,100722.34
2023-05-06T04:29:07.056Z,100727.56
2023-05-06T04:31:58.456Z,100737.09
2023-05-06T04:34:47.450Z,100733.66
2023-05-06T04:37:34.550Z,100733.66
2023-05-06T04:40:30.831Z,100734.53
2023-05-06T04:43:16.568Z,100734.53
2023-05-06T04:46:03.399Z,100729.31
2023-05-06T04:48:51.725Z,100731.97
2023-05-06T04:51:37.959Z,100729.41
2023-05-06T04:54:24.487Z,100736.34
2023-05-06T04:57:09.699Z,100738.06
2023-05-06T04:59:56.003Z,100744.09
2023-05-06T05:02:41.374Z,100737.19
2023-05-06T05:05:28.529Z,100739.75
2023-05-06T05:08:15.219Z,100739.75
2023-05-06T05:11:00.703Z,100742.34
2023-05-06T05:13:48.089Z,100733.69
2023-05-06T05:16:33.450Z,100747.56
2023-05-06T05:19:21.526Z,100740.66
2023-05-06T05:22:07.579Z,100751.94
2023-05-06T05:24:52.940Z,100756.34
2023-05-06T05:27:38.259Z,100753.78
2023-05-06T05:30:23.522Z,100759.91
2023-05-06T05:33:09.627Z,100765.19
2023-05-06T05:35:56.130Z,100761.78
2023-05-06T05:38:41.955Z,100758.34
2023-05-06T05:41:28.428Z,100768.84
2023-05-06T05:44:14.400Z,100765.38
2023-05-06T05:47:00.709Z,100765.41
2023-05-06T05:49:47.163Z,100762.84
2023-05-06T05:52:33.086Z,100768.09
2023-05-06T05:55:19.092Z,100765.50
2023-05-06T05:58:06.457Z,100777.66
2023-05-06T06:00:52.987Z,100785.50
2023-05-06T06:03:39.422Z,100790.72
2023-05-06T06:06:25.148Z,100791.59
2023-05-06T06:09:11.344Z,100802.03
2023-05-06T06:11:57.988Z,100793.38
2023-05-06T06:14:48.362Z,100795.09
2023-05-06T06:17:37.229Z,100797.69
2023-05-06T06:20:25.498Z,100802.03
2023-05-06T06:23:11.835Z,100811.56
2023-05-06T06:25:57.328Z,100809.81
2023-05-06T06:28:44.747Z,100811.50
2023-05-06T06:31:30.220Z,100813.22
2023-05-06T06:34:15.637Z,100818.41
2023-05-06T06:37:01.275Z,100817.50
2023-05-06T06:39:46.704Z,100821.81
2023-05-06T06:42:32.812Z,100827.88
2023-05-06T06:45:27.073Z,100824.34
2023-05-06T06:48:12.541Z,100830.41
2023-05-06T06:50:58.252Z,100823.38
2023-05-06T06:53:43.523Z,100825.09
2023-05-06T06:56:28.964Z,100825.94
2023-05-06T06:59:14.457Z,100827.63
2023-05-06T07:02:00.197Z,100820.63
2023-05-06T07:04:45.706Z,100814.50
2023-05-06T07:07:31.334Z,100823.13
2023-05-06T07:10:16.833Z,100813.50
2023-05-06T07:13:02.209Z,100811.69
2023-05-06T07:15:47.491Z,100808.13
2023-05-06T07:18:32.873Z,100812.41
2023-05-06T07:21:18.120Z,100812.34
2023-05-06T07:24:03.689Z,100806.16
2023-05-06T07:26:49.739Z,100802.66
2023-05-06T07:29:36.813Z,100800.81
2023-05-06T07:32:22.442Z,100795.56
2023-05-06T07:35:08.956Z,100794.59
2023-05-06T07:37:54.744Z,100788.44
2023-05-06T07:40:40.104Z,100795.31
2023-05-06T07:43:25.603Z,100794.38
2023-05-06T07:46:11.440Z,100793.41
2023-05-06T07:48:56.736Z,100792.47
2023-05-06T07:51:43.022Z,100802.00
2023-05-06T07:54:28.985Z,100793.28
2023-05-06T07:57:15.954Z,100798.50
2023-05-06T08:00:01.813Z,100803.72
2023-05-06T08:02:48.174Z,100802.81
2023-05-06T08:05:34.063Z,100809.72
2023-05-06T08:08:20.086Z,100800.91
2023-05-06T08:11:05.385Z,100799.06
2023-05-06T08:13:50.842Z,100805.06
2023-05-06T08:16:36.350Z,100796.19
2023-05-06T08:19:23.391Z,100795.19
2023-05-06T08:22:08.853Z,100792.47
2023-05-06T08:24:55.174Z,100791.53
2023-05-06T08:27:40.953Z,100795.81
2023-05-06T08:30:26.297Z,100797.47
2023-05-06T08:33:11.941Z,100794.81
2023-05-06T08:35:58.817Z,100794.84
2023-05-06T08:38:50.611Z,100789.59
2023-05-06T08:41:39.886Z,100792.16
2023-05-06T08:44:25.907Z,100799.94
2023-05-06T08:47:12.093Z,100793.78
2023-05-06T08:49:57.328Z,100792.03
2023-05-06T08:52:42.543Z,100796.34
2023-05-06T08:55:29.632Z,100793.72
2023-05-06T08:58:17.160Z,100795.44
2023-05-06T09:01:04.078Z,100801.59
2023-05-06T09:03:51.316Z,100807.56
2023-05-06T09:06:36.660Z,100804.75
2023-05-06T09:09:21.985Z,100797.63
2023-05-06T09:12:12.321Z,100790.47
2023-05-06T09:14:57.756Z,100782.63
2023-05-06T09:17:43.925Z,100780.84
2023-05-06T09:20:32.984Z,100783.38
2023-05-06T09:23:18.724Z,100774.69
2023-05-06T09:26:04.132Z,100779.03
2023-05-06T09:28:51.247Z,100783.34
2023-05-06T09:31:45.828Z,100775.56
2023-05-06T09:34:33.720Z,100775.63
2023-05-06T09:37:21.044Z,100784.47
2023-05-06T09:40:07.259Z,100790.59
2023-05-06T09:42:52.796Z,100797.63
2023-05-06T09:45:38.015Z,100806.38
2023-05-06T09:48:23.907Z,100812.53
2023-05-06T09:51:09.601Z,100816.03
2023-05-06T09:53:56.838Z,100809.09
2023-05-06T09:56:44.341Z,100806.56
2023-05-06T09:59:30.808Z,100809.13
2023-05-06T10:02:17.177Z,100810.91
2023-05-06T10:05:06.186Z,100814.28
2023-05-06T10:07:53.579Z,100813.34
2023-05-06T10:10:42.285Z,100813.25
2023-05-06T10:13:27.909Z,100801.63
2023-05-06T10:16:15.934Z,100800.56
2023-05-06T10:19:03.959Z,100806.31
2023-05-06T10:21:54.505Z,100797.97
2023-05-06T10:25:00.636Z,100796.44
2023-05-06T10:27:46.872Z,100793.56
2023-05-06T10:30:38.006Z,100796.88
2023-05-06T10:33:26.021Z,100795.72
2023-05-06T10:36:20.531Z,100791.22
2023-05-06T10:39:10.311Z,100791.28
2023-05-06T10:41:56.923Z,100791.03
2023-05-06T10:45:04.124Z,100788.25
2023-05-06T10:47:56.289Z,100791.44
2023-05-06T10:50:41.961Z,100789.34
2023-05-06T10:53:56.459Z,100790.72
2023-05-06T10:56:51.185Z,100785.47
2023-05-06T10:59:36.461Z,100786.50
2023-05-06T11:02:22.102Z,100789.38
2023-05-06T11:05:07.722Z,100787.91
2023-05-06T11:07:53.429Z,100793.56
2023-05-06T11:10:39.045Z,100786.09
2023-05-06T11:13:30.009Z,100788.22
2023-05-06T11:16:48.653Z,100791.22
2023-05-06T11:19:36.461Z,100793.22
2023-05-06T11:22:40.246Z,100787.13
2023-05-06T11:25:45.047Z,100794.22
2023-05-06T11:28:30.784Z,100800.31
2023-05-06T11:31:16.964Z,100801.31
2023-05-06T11:34:08.792Z,100790.75
2023-05-06T11:37:06.043Z,100793.13
2023-05-06T11:39:51.950Z,100789.22
2023-05-06T11:42:37.457Z,100783.53
2023-05-06T11:45:22.962Z,100788.13
2023-05-06T11:48:17.755Z,100789.00
2023-05-06T11:51:04.059Z,100785.03
2023-05-06T11:53:49.523Z,100785.47
2023-05-06T11:56:51.899Z,100789.63
2023-05-06T11:59:39.520Z,100788.66
2023-05-06T12:02:25.074Z,100794.00
2023-05-06T12:05:10.702Z,100786.00
2023-05-06T12:07:56.321Z,100786.75
2023-05-06T12:10:42.470Z,100778.84
2023-05-06T12:13:29.253Z,100791.38
2023-05-06T12:16:15.724Z,100792.16
2023-05-06T12:19:02.452Z,100793.06
2023-05-06T12:21:48.077Z,100787.72
2023-05-06T12:24:33.566Z,100798.03
2023-05-06T12:27:36.258Z,100786.38
2023-05-06T12:30:32.009Z,100797.94
2023-05-06T12:33:17.624Z,100797.16
2023-05-06T12:36:07.451Z,100797.69
2023-05-06T12:38:55.570Z,100799.72
2023-05-06T12:41:45.780Z,100791.88
2023-05-06T12:44:32.738Z,100791.91
2023-05-06T12:47:26.203Z,100792.22
2023-05-06T12:50:12.329Z,100787.81
2023-05-06T12:52:58.036Z,100786.88
2023-05-06T12:55:45.314Z,100785.09
2023-05-06T12:58:37.381Z,100784.06
2023-05-06T13:01:23.228Z,100786.41
2023-05-06T13:04:08.663Z,100782.22
2023-05-06T13:06:54.720Z,100784.00
2023-05-06T13:09:40.601Z,100786.53
2023-05-06T13:12:26.033Z,100790.16
2023-05-06T13:15:11.706Z,100791.59
2023-05-06T13:17:57.518Z,100790.25
2023-05-06T13:20:43.178Z,100791.78
2023-05-06T13:23:28.643Z,100788.53
2023-05-06T13:26:15.214Z,100798.50
2023-05-06T13:29:00.662Z,100793.50
2023-05-06T13:31:46.448Z,100797.75
2023-05-06T13:34:31.926Z,100792.81
2023-05-06T13:37:17.528Z,100790.94
2023-05-06T13:40:03.512Z,100793.31
2023-05-06T13:42:48.792Z,100789.78
2023-05-06T13:45:34.182Z,100783.94
2023-05-06T13:48:19.454Z,100792.44
2023-05-06T13:51:05.150Z,100790.44
2023-05-06T13:53:51.911Z,100792.72
2023-05-06T13:56:37.700Z,100789.41
2023-05-06T13:59:23.334Z,100800.22
2023-05-06T14:02:09.755Z,100801.31
2023-05-06T14:04:55.684Z,100796.97
2023-05-06T14:07:41.486Z,100789.94
2023-05-06T14:10:27.028Z,100793.38
2023-05-06T14:13:12.645Z,100790.00
2023-05-06T14:15:58.149Z,100782.84
2023-05-06T14:18:43.700Z,100778.38
2023-05-06T14:21:29.049Z,100777.00
2023-05-06T14:24:14.934Z,100777.47
2023-05-06T14:27:00.589Z,100779.03
2023-05-06T14:29:46.323Z,100784.72
2023-05-06T14:32:32.907Z,100779.41
2023-05-06T14:35:18.361Z,100783.78
2023-05-06T14:38:03.855Z,100777.75
2023-05-06T14:40:50.674Z,100774.03
2023-05-06T14:43:36.236Z,100767.00
2023-05-06T14:46:21.797Z,100772.63
2023-05-06T14:49:07.447Z,100771.25
2023-05-06T14:51:52.774Z,100764.84
2023-05-06T14:54:42.459Z,100764.56
2023-05-06T14:57:28.138Z,100769.59
2023-05-06T15:00:14.921Z,100766.56
2023-05-06T15:03:00.522Z,100760.56
2023-05-06T15:05:46.652Z,100771.03
2023-05-06T15:08:32.086Z,100763.19
2023-05-06T15:11:17.611Z,100757.84
2023-05-06T15:14:02.860Z,100756.88
2023-05-06T15:16:48.470Z,100757.50
2023-05-06T15:19:34.230Z,100760.09
2023-05-06T15:22:19.848Z,100767.63
2023-05-06T15:25:05.759Z,100756.28
2023-05-06T15:27:51.087Z,100758.66
2023-05-06T15:30:37.995Z,100759.25
2023-05-06T15:33:23.785Z,100751.16
2023-05-06T15:36:09.116Z,100751.78
2023-05-06T15:39:00.862Z,100744.06
2023-05-06T15:41:47.967Z,100751.16
2023-05-06T15:44:34.092Z,100759.91
2023-05-06T15:47:19.712Z,100762.28
2023-05-06T15:50:16.500Z,100759.34
2023-05-06T15:53:06.464Z,100759.75
2023-05-06T15:55:56.587Z,100755.84
2023-05-06T15:58:43.914Z,100752.75
2023-05-06T16:01:53.929Z,100753.00
2023-05-06T16:04:35.054Z,100759.41
2023-05-06T16:07:20.769Z,100754.63
2023-05-06T16:10:06.895Z,100761.09
2023-05-06T16:12:52.377Z,100770.84
2023-05-06T16:15:37.711Z,100767.34
2023-05-06T16:18:23.138Z,100764.09
2023-05-06T16:21:08.770Z,100767.59
2023-05-06T16:23:54.418Z,100764.91
2023-05-06T16:26:40.209Z,100771.81
2023-05-06T16:29:25.666Z,100772.22
2023-05-06T16:32:11.807Z,100779.16
2023-05-06T16:34:57.221Z,100774.91
2023-05-06T16:37:44.587Z,100787.88
2023-05-06T16:40:31.188Z,100784.38
2023-05-06T16:43:18.795Z,100787.72
2023-05-06T16:46:04.093Z,100783.13
2023-05-06T16:48:49.413Z,100784.00
2023-05-06T16:51:34.759Z,100788.78
2023-05-06T16:54:20.114Z,100799.28
2023-05-06T16:57:05.811Z,100801.72
2023-05-06T16:59:51.110Z,100792.66
2023-05-06T17:02:36.645Z,100796.75
2023-05-06T17:05:22.635Z,100798.22
2023-05-06T17:08:08.483Z,100803.00
2023-05-06T17:10:54.097Z,100795.38
2023-05-06T17:13:39.500Z,100796.38
2023-05-06T17:16:24.898Z,100800.00
2023-05-06T17:19:11.963Z,100801.81
2023-05-06T17:21:58.022Z,100801.94
2023-05-06T17:24:43.761Z,100806.38
2023-05-06T17:27:29.449Z,100804.59
2023-05-06T17:30:15.223Z,100813.34
2023-05-06T17:33:00.895Z,100798.44
2023-05-06T17:35:46.589Z,100813.19
2023-05-06T17:38:31.846Z,100804.31
2023-05-06T17:41:17.281Z,100813.84
2023-05-06T17:44:02.507Z,100815.50
2023-05-06T17:46:48.231Z,100814.56
2023-05-06T17:49:34.470Z,100811.97
2023-05-06T17:52:20.493Z,100810.13
2023-05-06T17:57:56.466Z,100821.41
2023-05-06T18:00:42.188Z,100811.78
2023-05-06T18:03:27.856Z,100810.19
2023-05-06T18:06:13.525Z,100818.97
2023-05-06T18:08:58.856Z,100818.97
2023-05-06T18:11:44.374Z,100824.97
2023-05-06T18:14:29.991Z,100820.53
2023-05-06T18:17:15.541Z,100831.84
2023-05-06T18:20:01.115Z,100822.22
2023-05-06T18:22:46.524Z,100839.03
2023-05-06T18:25:32.046Z,100840.00
2023-05-06T18:28:17.446Z,100828.66
2023-05-06T18:31:02.962Z,100830.72
2023-05-06T18:33:48.458Z,100831.81
2023-05-06T18:36:35.125Z,100833.75
2023-05-06T18:39:23.156Z,100848.81
2023-05-06T18:42:08.775Z,100848.91
2023-05-06T18:44:54.464Z,100855.16
2023-05-06T18:47:40.404Z,100855.34
2023-05-06T18:50:25.814Z,100856.38
2023-05-06T18:53:11.804Z,100866.13
2023-05-06T18:55:57.405Z,100873.22
2023-05-06T18:58:42.781Z,100870.66
2023-05-06T19:01:28.319Z,100866.34
2023-05-06T19:04:14.191Z,100870.84
2023-05-06T19:07:00.019Z,100872.63
2023-05-06T19:09:45.551Z,100877.97
2023-05-06T19:12:31.292Z,100878.06
2023-05-06T19:15:19.115Z,100872.97
2023-05-06T19:18:05.124Z,100874.00
2023-05-06T19:20:52.394Z,100876.63
2023-05-06T19:23:38.534Z,100884.53
2023-05-06T19:26:23.965Z,100888.09
2023-05-06T19:29:09.316Z,100894.22
2023-05-06T19:31:55.069Z,100890.78
2023-05-06T19:34:40.674Z,100892.50
2023-05-06T19:37:30.263Z,100898.63
2023-05-06T19:40:15.655Z,100898.63
2023-05-06T19:43:03.995Z,100897.75
2023-05-06T19:45:49.340Z,100877.69
2023-05-06T19:48:36.806Z,100872.41
2023-05-06T19:51:22.526Z,100875.00
2023-05-06T19:54:07.980Z,100875.00
2023-05-06T19:56:53.253Z,100877.66
2023-05-06T19:59:38.679Z,100877.72
2023-05-06T20:02:24.468Z,100882.97
2023-05-06T20:05:10.667Z,100884.75
2023-05-06T20:07:56.784Z,100893.53
2023-05-06T20:10:42.101Z,100896.25
2023-05-06T20:13:27.491Z,100898.03
2023-05-06T20:16:13.283Z,100895.47
2023-05-06T20:18:59.170Z,100905.13
2023-05-06T20:21:44.454Z,100907.81
2023-05-06T20:24:29.857Z,100907.84
2023-05-06T20:27:15.144Z,100913.16
2023-05-06T20:30:00.909Z,100910.53
2023-05-06T20:32:46.786Z,100911.41
2023-05-06T20:35:38.131Z,100911.47
2023-05-06T20:38:24.262Z,100918.47
2023-05-06T20:41:09.582Z,100923.75
2023-05-06T20:43:57.254Z,100923.81
2023-05-06T20:46:42.923Z,100922.13
2023-05-06T20:49:28.954Z,100929.22
2023-05-06T20:52:14.814Z,100930.22
2023-05-06T20:55:00.619Z,100932.94
2023-05-06T20:57:45.974Z,100938.31
2023-05-06T21:00:31.360Z,100944.44
2023-05-06T21:03:16.788Z,100947.13
2023-05-06T21:06:02.562Z,100947.16
2023-05-06T21:08:48.108Z,100948.94
2023-05-06T21:11:33.305Z,100951.59
2023-05-06T21:14:19.054Z,100949.88
2023-05-06T21:17:04.910Z,100949.91
2023-05-06T21:19:52.480Z,100956.88
2023-05-06T21:22:38.174Z,100959.50
2023-05-06T21:25:23.727Z,100956.91
2023-05-06T21:28:09.338Z,100959.50
2023-05-06T21:30:54.763Z,100962.13
2023-05-06T21:33:40.604Z,100969.06
2023-05-06T21:36:26.280Z,100968.22
2023-05-06T21:39:14.098Z,100962.97
2023-05-06T21:41:59.750Z,100963.84
2023-05-06T21:44:45.183Z,100965.59
2023-05-06T21:47:30.459Z,100962.09
2023-05-06T21:50:15.804Z,100970.81
2023-05-06T21:53:01.310Z,100969.06
2023-05-06T21:55:46.703Z,100969.91
2023-05-06T21:58:32.165Z,100981.25
2023-05-06T22:01:17.907Z,100982.97
2023-05-06T22:04:09.350Z,100989.09
2023-05-06T22:06:54.996Z,100993.44
2023-05-06T22:09:40.393Z,100992.59
2023-05-06T22:12:25.971Z,100992.59
2023-05-06T22:15:13.487Z,100998.66
2023-05-06T22:17:59.358Z,100997.78
2023-05-06T22:20:46.625Z,101002.13
2023-05-06T22:23:32.071Z,101019.50
2023-05-06T22:26:17.346Z,101016.91
2023-05-06T22:29:02.773Z,101013.44
2023-05-06T22:31:48.069Z,101020.41
2023-05-06T22:34:33.244Z,101022.16
2023-05-06T22:37:18.609Z,101024.78
2023-05-06T22:40:04.484Z,101029.13
2023-05-06T22:42:49.792Z,101035.25
2023-05-06T22:45:35.170Z,101036.09
2023-05-06T22:48:22.103Z,101045.69
2023-05-06T22:51:07.940Z,101039.59
2023-05-06T22:53:53.407Z,101046.53
2023-05-06T22:56:38.920Z,101050.88
2023-05-06T22:59:24.212Z,101055.22
2023-05-06T23:02:09.570Z,101056.13
2023-05-06T23:04:55.165Z,101056.13
2023-05-06T23:07:40.632Z,101058.72
2023-05-06T23:10:26.927Z,101052.59
2023-05-06T23:13:12.668Z,101051.75
2023-05-06T23:15:58.341Z,101046.53
2023-05-06T23:18:44.127Z,101050.88
2023-05-06T23:21:29.495Z,101051.75
2023-05-06T23:24:14.963Z,101054.38
2023-05-06T23:27:00.249Z,101050.03
2023-05-06T23:29:45.526Z,101053.50
2023-05-06T23:32:30.999Z,101055.25
2023-05-06T23:35:16.869Z,101068.31
2023-05-06T23:38:02.333Z,101063.06
2023-05-06T23:40:47.518Z,101060.44
2023-05-06T23:43:32.919Z,101061.34
2023-05-06T23:46:18.367Z,101063.09
2023-05-06T23:49:04.175Z,101065.69
2023-05-06T23:51:51.556Z,101069.16
2023-05-06T23:54:37.424Z,101070.91
2023-05-06T23:57:22.992Z,101069.16
